sensor_id;sensor_type;location;lat;lon;timestamp;temperature;humidity
20035;DHT22;10178;48.034;9.800;2022-09-28T00:01:52;10.30;99.90
20035;DHT22;10178;48.034;9.800;2022-09-28T00:04:18;10.20;99.90
20035;DHT22;10178;48.034;9.800;2022-09-28T00:06:44;10.60;99.90
20035;DHT22;10178;48.034;9.800;2022-09-28T00:09:15;10.50;99.90
20035;DHT22;10178;48.034;9.800;2022-09-28T00:11:41;9.90;99.90
20035;DHT22;10178;48.034;9.800;2022-09-28T00:14:09;9.70;99.90
20035;DHT22;10178;48.034;9.800;2022-09-28T00:16:38;9.70;99.90
20035;DHT22;10178;48.034;9.800;2022-09-28T00:19:05;9.80;99.90
20035;DHT22;10178;48.034;9.800;2022-09-28T00:21:33;9.80;99.90
20035;DHT22;10178;48.034;9.800;2022-09-28T00:24:00;9.80;99.90
20035;DHT22;10178;48.034;9.800;2022-09-28T00:26:48;9.80;99.90
20035;DHT22;10178;48.034;9.800;2022-09-28T00:29:35;9.90;99.90
20035;DHT22;10178;48.034;9.800;2022-09-28T00:32:04;9.80;99.90
20035;DHT22;10178;48.034;9.800;2022-09-28T00:35:02;9.80;99.90
20035;DHT22;10178;48.034;9.800;2022-09-28T00:37:28;10.00;99.90
20035;DHT22;10178;48.034;9.800;2022-09-28T00:39:53;9.80;99.90
20035;DHT22;10178;48.034;9.800;2022-09-28T00:42:22;9.70;99.90
20035;DHT22;10178;48.034;9.800;2022-09-28T00:44:55;9.80;99.90
20035;DHT22;10178;48.034;9.800;2022-09-28T00:47:31;9.70;99.90
20035;DHT22;10178;48.034;9.800;2022-09-28T00:52:50;9.80;99.90
20035;DHT22;10178;48.034;9.800;2022-09-28T00:55:22;9.80;99.90
20035;DHT22;10178;48.034;9.800;2022-09-28T00:57:53;10.00;99.90
20035;DHT22;10178;48.034;9.800;2022-09-28T01:00:21;10.20;99.90
20035;DHT22;10178;48.034;9.800;2022-09-28T01:02:47;10.20;99.90
20035;DHT22;10178;48.034;9.800;2022-09-28T01:05:14;10.20;99.90
20035;DHT22;10178;48.034;9.800;2022-09-28T01:07:41;10.00;99.90
20035;DHT22;10178;48.034;9.800;2022-09-28T01:10:08;10.20;99.90
20035;DHT22;10178;48.034;9.800;2022-09-28T01:12:34;10.00;99.90
20035;DHT22;10178;48.034;9.800;2022-09-28T01:14:59;10.10;99.90
20035;DHT22;10178;48.034;9.800;2022-09-28T01:20:26;9.80;99.90
20035;DHT22;10178;48.034;9.800;2022-09-28T01:28:29;9.90;99.90
20035;DHT22;10178;48.034;9.800;2022-09-28T01:33:53;9.70;99.90
20035;DHT22;10178;48.034;9.800;2022-09-28T01:36:38;10.00;99.90
20035;DHT22;10178;48.034;9.800;2022-09-28T01:39:17;9.90;99.90
20035;DHT22;10178;48.034;9.800;2022-09-28T01:41:48;10.30;99.90
20035;DHT22;10178;48.034;9.800;2022-09-28T01:44:16;10.10;99.90
20035;DHT22;10178;48.034;9.800;2022-09-28T01:46:49;10.40;99.90
20035;DHT22;10178;48.034;9.800;2022-09-28T01:49:33;10.30;99.90
20035;DHT22;10178;48.034;9.800;2022-09-28T01:52:06;10.20;99.90
20035;DHT22;10178;48.034;9.800;2022-09-28T01:54:42;10.30;99.90
20035;DHT22;10178;48.034;9.800;2022-09-28T02:00:08;10.10;99.90
20035;DHT22;10178;48.034;9.800;2022-09-28T02:02:48;10.10;99.90
20035;DHT22;10178;48.034;9.800;2022-09-28T02:07:52;10.10;99.90
20035;DHT22;10178;48.034;9.800;2022-09-28T02:10:24;10.00;99.90
20035;DHT22;10178;48.034;9.800;2022-09-28T02:13:05;10.20;99.90
20035;DHT22;10178;48.034;9.800;2022-09-28T02:15:45;10.00;99.90
20035;DHT22;10178;48.034;9.800;2022-09-28T02:18:15;9.90;99.90
20035;DHT22;10178;48.034;9.800;2022-09-28T02:20:47;9.70;99.90
20035;DHT22;10178;48.034;9.800;2022-09-28T02:23:16;9.70;99.90
20035;DHT22;10178;48.034;9.800;2022-09-28T02:25:46;10.00;99.90
20035;DHT22;10178;48.034;9.800;2022-09-28T02:28:14;10.10;99.90
20035;DHT22;10178;48.034;9.800;2022-09-28T02:30:42;10.30;99.90
20035;DHT22;10178;48.034;9.800;2022-09-28T02:33:28;10.50;99.90
20035;DHT22;10178;48.034;9.800;2022-09-28T02:35:57;10.80;99.90
20035;DHT22;10178;48.034;9.800;2022-09-28T02:38:24;10.40;99.90
20035;DHT22;10178;48.034;9.800;2022-09-28T02:41:01;10.20;99.90
20035;DHT22;10178;48.034;9.800;2022-09-28T02:44:02;10.10;99.90
20035;DHT22;10178;48.034;9.800;2022-09-28T03:00:05;10.60;99.90
20035;DHT22;10178;48.034;9.800;2022-09-28T03:03:04;10.60;99.90
20035;DHT22;10178;48.034;9.800;2022-09-28T03:08:32;10.70;99.90
20035;DHT22;10178;48.034;9.800;2022-09-28T03:11:13;10.80;99.90
20035;DHT22;10178;48.034;9.800;2022-09-28T03:13:41;10.80;99.90
20035;DHT22;10178;48.034;9.800;2022-09-28T03:16:15;10.80;99.90
20035;DHT22;10178;48.034;9.800;2022-09-28T03:18:41;10.60;99.90
20035;DHT22;10178;48.034;9.800;2022-09-28T03:21:09;10.70;99.90
20035;DHT22;10178;48.034;9.800;2022-09-28T03:23:35;10.60;99.90
20035;DHT22;10178;48.034;9.800;2022-09-28T03:26:01;10.40;99.90
20035;DHT22;10178;48.034;9.800;2022-09-28T03:28:27;10.40;99.90
20035;DHT22;10178;48.034;9.800;2022-09-28T03:30:53;10.70;99.90
20035;DHT22;10178;48.034;9.800;2022-09-28T03:33:19;10.90;99.90
20035;DHT22;10178;48.034;9.800;2022-09-28T03:35:46;10.60;99.90
20035;DHT22;10178;48.034;9.800;2022-09-28T03:38:12;10.60;99.90
20035;DHT22;10178;48.034;9.800;2022-09-28T03:40:38;10.30;99.90
20035;DHT22;10178;48.034;9.800;2022-09-28T03:43:03;10.20;99.90
20035;DHT22;10178;48.034;9.800;2022-09-28T03:45:29;10.20;99.90
20035;DHT22;10178;48.034;9.800;2022-09-28T03:47:55;10.10;99.90
20035;DHT22;10178;48.034;9.800;2022-09-28T03:50:27;10.40;99.90
20035;DHT22;10178;48.034;9.800;2022-09-28T03:56:15;10.30;99.90
20035;DHT22;10178;48.034;9.800;2022-09-28T03:58:41;10.30;99.90
20035;DHT22;10178;48.034;9.800;2022-09-28T04:01:09;10.40;99.90
20035;DHT22;10178;48.034;9.800;2022-09-28T04:03:38;10.60;99.90
20035;DHT22;10178;48.034;9.800;2022-09-28T04:06:04;10.50;99.90
20035;DHT22;10178;48.034;9.800;2022-09-28T04:08:29;10.40;99.90
20035;DHT22;10178;48.034;9.800;2022-09-28T04:10:59;9.90;99.90
20035;DHT22;10178;48.034;9.800;2022-09-28T04:13:26;10.10;99.90
20035;DHT22;10178;48.034;9.800;2022-09-28T04:15:56;10.10;99.90
20035;DHT22;10178;48.034;9.800;2022-09-28T04:18:23;10.20;99.90
20035;DHT22;10178;48.034;9.800;2022-09-28T04:21:01;10.50;99.90
20035;DHT22;10178;48.034;9.800;2022-09-28T04:23:28;10.20;99.90
20035;DHT22;10178;48.034;9.800;2022-09-28T04:25:54;10.00;99.90
20035;DHT22;10178;48.034;9.800;2022-09-28T04:28:20;10.10;99.90
20035;DHT22;10178;48.034;9.800;2022-09-28T04:31:12;10.30;99.90
20035;DHT22;10178;48.034;9.800;2022-09-28T04:33:38;10.30;99.90
20035;DHT22;10178;48.034;9.800;2022-09-28T04:36:04;10.40;99.90
20035;DHT22;10178;48.034;9.800;2022-09-28T04:38:30;10.10;99.90
20035;DHT22;10178;48.034;9.800;2022-09-28T04:40:56;10.00;99.90
20035;DHT22;10178;48.034;9.800;2022-09-28T04:43:22;10.00;99.90
20035;DHT22;10178;48.034;9.800;2022-09-28T04:45:47;9.70;99.90
20035;DHT22;10178;48.034;9.800;2022-09-28T04:48:13;9.80;99.90
20035;DHT22;10178;48.034;9.800;2022-09-28T04:50:38;9.90;99.90
20035;DHT22;10178;48.034;9.800;2022-09-28T04:53:04;9.90;99.90
20035;DHT22;10178;48.034;9.800;2022-09-28T04:55:29;10.10;99.90
20035;DHT22;10178;48.034;9.800;2022-09-28T04:58:00;10.00;99.90
20035;DHT22;10178;48.034;9.800;2022-09-28T05:00:28;10.10;99.90
20035;DHT22;10178;48.034;9.800;2022-09-28T05:02:58;10.20;99.90
20035;DHT22;10178;48.034;9.800;2022-09-28T05:05:23;10.10;99.90
20035;DHT22;10178;48.034;9.800;2022-09-28T05:07:49;10.10;99.90
20035;DHT22;10178;48.034;9.800;2022-09-28T05:10:15;9.90;99.90
20035;DHT22;10178;48.034;9.800;2022-09-28T05:12:41;9.90;99.90
20035;DHT22;10178;48.034;9.800;2022-09-28T05:15:07;10.00;99.90
20035;DHT22;10178;48.034;9.800;2022-09-28T05:17:32;10.10;99.90
20035;DHT22;10178;48.034;9.800;2022-09-28T05:19:58;10.10;99.90
20035;DHT22;10178;48.034;9.800;2022-09-28T05:22:25;10.10;99.90
20035;DHT22;10178;48.034;9.800;2022-09-28T05:24:50;9.90;99.90
20035;DHT22;10178;48.034;9.800;2022-09-28T05:27:16;9.80;99.90
20035;DHT22;10178;48.034;9.800;2022-09-28T05:29:41;9.80;99.90
20035;DHT22;10178;48.034;9.800;2022-09-28T05:32:07;9.60;99.90
20035;DHT22;10178;48.034;9.800;2022-09-28T05:34:32;9.80;99.90
20035;DHT22;10178;48.034;9.800;2022-09-28T05:36:58;9.90;99.90
20035;DHT22;10178;48.034;9.800;2022-09-28T05:39:24;9.90;99.90
20035;DHT22;10178;48.034;9.800;2022-09-28T05:41:49;9.90;99.90
20035;DHT22;10178;48.034;9.800;2022-09-28T05:44:15;9.90;99.90
20035;DHT22;10178;48.034;9.800;2022-09-28T05:46:41;9.80;99.90
20035;DHT22;10178;48.034;9.800;2022-09-28T05:49:06;9.70;99.90
20035;DHT22;10178;48.034;9.800;2022-09-28T05:51:32;9.50;99.90
20035;DHT22;10178;48.034;9.800;2022-09-28T05:53:57;9.50;99.90
20035;DHT22;10178;48.034;9.800;2022-09-28T05:56:23;9.50;99.90
20035;DHT22;10178;48.034;9.800;2022-09-28T05:58:49;9.80;99.90
20035;DHT22;10178;48.034;9.800;2022-09-28T06:01:14;9.60;99.90
20035;DHT22;10178;48.034;9.800;2022-09-28T06:03:40;9.80;99.90
20035;DHT22;10178;48.034;9.800;2022-09-28T06:06:05;9.70;99.90
20035;DHT22;10178;48.034;9.800;2022-09-28T06:08:31;9.50;99.90
20035;DHT22;10178;48.034;9.800;2022-09-28T06:11:01;9.70;99.90
20035;DHT22;10178;48.034;9.800;2022-09-28T06:13:27;9.80;99.90
20035;DHT22;10178;48.034;9.800;2022-09-28T06:15:53;10.00;99.90
20035;DHT22;10178;48.034;9.800;2022-09-28T06:18:19;9.80;99.90
20035;DHT22;10178;48.034;9.800;2022-09-28T06:20:44;9.80;99.90
20035;DHT22;10178;48.034;9.800;2022-09-28T06:23:11;9.80;99.90
20035;DHT22;10178;48.034;9.800;2022-09-28T06:25:38;9.70;99.90
20035;DHT22;10178;48.034;9.800;2022-09-28T06:28:05;9.80;99.90
20035;DHT22;10178;48.034;9.800;2022-09-28T06:30:33;9.70;99.90
20035;DHT22;10178;48.034;9.800;2022-09-28T06:33:00;9.50;99.90
20035;DHT22;10178;48.034;9.800;2022-09-28T06:35:28;9.80;99.90
20035;DHT22;10178;48.034;9.800;2022-09-28T06:37:54;10.00;99.90
20035;DHT22;10178;48.034;9.800;2022-09-28T06:40:21;10.40;99.90
20035;DHT22;10178;48.034;9.800;2022-09-28T06:42:56;10.50;99.90
20035;DHT22;10178;48.034;9.800;2022-09-28T06:45:23;10.70;99.90
20035;DHT22;10178;48.034;9.800;2022-09-28T06:47:55;10.90;99.90
20035;DHT22;10178;48.034;9.800;2022-09-28T06:50:21;11.10;99.90
20035;DHT22;10178;48.034;9.800;2022-09-28T06:52:49;11.20;99.90
20035;DHT22;10178;48.034;9.800;2022-09-28T06:55:16;11.30;99.90
20035;DHT22;10178;48.034;9.800;2022-09-28T06:57:41;11.20;99.90
20035;DHT22;10178;48.034;9.800;2022-09-28T07:00:07;11.00;99.90
20035;DHT22;10178;48.034;9.800;2022-09-28T07:02:33;10.90;99.90
20035;DHT22;10178;48.034;9.800;2022-09-28T07:04:59;11.00;99.90
20035;DHT22;10178;48.034;9.800;2022-09-28T07:07:24;11.10;99.90
20035;DHT22;10178;48.034;9.800;2022-09-28T07:09:53;11.00;99.90
20035;DHT22;10178;48.034;9.800;2022-09-28T07:12:20;11.00;99.90
20035;DHT22;10178;48.034;9.800;2022-09-28T07:14:46;11.10;99.90
20035;DHT22;10178;48.034;9.800;2022-09-28T07:17:13;11.10;99.90
20035;DHT22;10178;48.034;9.800;2022-09-28T07:19:39;11.10;99.90
20035;DHT22;10178;48.034;9.800;2022-09-28T07:22:04;11.30;99.90
20035;DHT22;10178;48.034;9.800;2022-09-28T07:24:30;11.30;99.90
20035;DHT22;10178;48.034;9.800;2022-09-28T07:26:56;11.10;99.90
20035;DHT22;10178;48.034;9.800;2022-09-28T07:29:21;10.90;99.90
20035;DHT22;10178;48.034;9.800;2022-09-28T07:31:47;10.80;99.90
20035;DHT22;10178;48.034;9.800;2022-09-28T07:34:12;10.90;99.90
20035;DHT22;10178;48.034;9.800;2022-09-28T07:36:38;10.60;99.90
20035;DHT22;10178;48.034;9.800;2022-09-28T07:39:04;10.60;99.90
20035;DHT22;10178;48.034;9.800;2022-09-28T07:41:29;10.40;99.90
20035;DHT22;10178;48.034;9.800;2022-09-28T07:44:01;10.50;99.90
20035;DHT22;10178;48.034;9.800;2022-09-28T07:46:34;10.60;99.90
20035;DHT22;10178;48.034;9.800;2022-09-28T07:49:01;10.90;99.90
20035;DHT22;10178;48.034;9.800;2022-09-28T07:51:30;10.90;99.90
20035;DHT22;10178;48.034;9.800;2022-09-28T07:53:55;10.80;99.90
20035;DHT22;10178;48.034;9.800;2022-09-28T07:56:21;10.90;99.90
20035;DHT22;10178;48.034;9.800;2022-09-28T07:58:47;11.10;99.90
20035;DHT22;10178;48.034;9.800;2022-09-28T08:01:14;10.90;99.90
20035;DHT22;10178;48.034;9.800;2022-09-28T08:03:41;10.30;99.90
20035;DHT22;10178;48.034;9.800;2022-09-28T08:06:10;10.00;99.90
20035;DHT22;10178;48.034;9.800;2022-09-28T08:08:38;9.70;99.90
20035;DHT22;10178;48.034;9.800;2022-09-28T08:11:18;9.60;99.90
20035;DHT22;10178;48.034;9.800;2022-09-28T08:13:43;9.50;99.90
20035;DHT22;10178;48.034;9.800;2022-09-28T08:16:10;9.60;99.90
20035;DHT22;10178;48.034;9.800;2022-09-28T08:18:36;9.80;99.90
20035;DHT22;10178;48.034;9.800;2022-09-28T08:21:03;10.00;99.90
20035;DHT22;10178;48.034;9.800;2022-09-28T08:23:47;10.20;99.90
20035;DHT22;10178;48.034;9.800;2022-09-28T08:26:13;10.40;99.90
20035;DHT22;10178;48.034;9.800;2022-09-28T08:28:39;10.50;99.90
20035;DHT22;10178;48.034;9.800;2022-09-28T08:31:05;10.60;99.90
20035;DHT22;10178;48.034;9.800;2022-09-28T08:33:32;10.30;99.90
20035;DHT22;10178;48.034;9.800;2022-09-28T08:39:43;9.60;99.90
20035;DHT22;10178;48.034;9.800;2022-09-28T08:42:32;9.40;99.90
20035;DHT22;10178;48.034;9.800;2022-09-28T08:45:12;9.20;99.90
20035;DHT22;10178;48.034;9.800;2022-09-28T08:50:40;9.30;99.90
20035;DHT22;10178;48.034;9.800;2022-09-28T08:55:57;9.30;99.90
20035;DHT22;10178;48.034;9.800;2022-09-28T08:58:26;9.20;99.90
20035;DHT22;10178;48.034;9.800;2022-09-28T09:00:55;9.20;99.90
20035;DHT22;10178;48.034;9.800;2022-09-28T09:03:36;9.10;99.90
20035;DHT22;10178;48.034;9.800;2022-09-28T09:09:38;9.10;99.90
20035;DHT22;10178;48.034;9.800;2022-09-28T09:12:22;9.40;99.90
20035;DHT22;10178;48.034;9.800;2022-09-28T09:23:37;10.20;99.90
20035;DHT22;10178;48.034;9.800;2022-09-28T09:26:16;10.50;99.90
20035;DHT22;10178;48.034;9.800;2022-09-28T09:34:50;10.70;99.90
20035;DHT22;10178;48.034;9.800;2022-09-28T09:40:55;11.20;99.90
20035;DHT22;10178;48.034;9.800;2022-09-28T09:48:56;11.10;99.90
20035;DHT22;10178;48.034;9.800;2022-09-28T09:56:51;10.70;99.90
20035;DHT22;10178;48.034;9.800;2022-09-28T09:59:24;10.50;99.90
20035;DHT22;10178;48.034;9.800;2022-09-28T10:01:51;10.60;99.90
20035;DHT22;10178;48.034;9.800;2022-09-28T10:04:26;10.60;99.90
20035;DHT22;10178;48.034;9.800;2022-09-28T10:07:03;10.80;99.90
20035;DHT22;10178;48.034;9.800;2022-09-28T10:09:34;10.90;99.90
20035;DHT22;10178;48.034;9.800;2022-09-28T10:12:03;10.90;99.90
20035;DHT22;10178;48.034;9.800;2022-09-28T10:14:32;11.00;99.90
20035;DHT22;10178;48.034;9.800;2022-09-28T10:17:01;11.20;99.90
20035;DHT22;10178;48.034;9.800;2022-09-28T10:19:30;11.10;99.90
20035;DHT22;10178;48.034;9.800;2022-09-28T10:22:02;11.00;99.90
20035;DHT22;10178;48.034;9.800;2022-09-28T10:24:32;11.10;99.90
20035;DHT22;10178;48.034;9.800;2022-09-28T10:27:07;11.10;99.90
20035;DHT22;10178;48.034;9.800;2022-09-28T10:29:45;11.30;99.90
20035;DHT22;10178;48.034;9.800;2022-09-28T10:32:23;11.40;99.90
20035;DHT22;10178;48.034;9.800;2022-09-28T10:34:50;11.40;99.90
20035;DHT22;10178;48.034;9.800;2022-09-28T10:37:16;11.50;99.90
20035;DHT22;10178;48.034;9.800;2022-09-28T10:39:52;11.50;99.90
20035;DHT22;10178;48.034;9.800;2022-09-28T10:42:27;11.40;99.90
20035;DHT22;10178;48.034;9.800;2022-09-28T10:45:00;11.30;99.90
20035;DHT22;10178;48.034;9.800;2022-09-28T10:47:29;11.40;99.90
20035;DHT22;10178;48.034;9.800;2022-09-28T10:49:57;11.20;99.90
20035;DHT22;10178;48.034;9.800;2022-09-28T10:52:35;11.20;99.90
20035;DHT22;10178;48.034;9.800;2022-09-28T10:55:21;11.40;99.90
20035;DHT22;10178;48.034;9.800;2022-09-28T10:57:48;11.40;99.90
20035;DHT22;10178;48.034;9.800;2022-09-28T11:00:40;11.50;99.90
20035;DHT22;10178;48.034;9.800;2022-09-28T11:03:23;11.60;99.90
20035;DHT22;10178;48.034;9.800;2022-09-28T11:05:59;11.40;99.90
20035;DHT22;10178;48.034;9.800;2022-09-28T11:08:28;11.30;99.90
20035;DHT22;10178;48.034;9.800;2022-09-28T11:11:12;11.30;99.90
20035;DHT22;10178;48.034;9.800;2022-09-28T11:13:47;11.40;99.90
20035;DHT22;10178;48.034;9.800;2022-09-28T11:16:39;11.50;99.90
20035;DHT22;10178;48.034;9.800;2022-09-28T11:19:28;11.40;99.90
20035;DHT22;10178;48.034;9.800;2022-09-28T11:21:56;11.40;99.90
20035;DHT22;10178;48.034;9.800;2022-09-28T11:24:22;11.50;99.90
20035;DHT22;10178;48.034;9.800;2022-09-28T11:26:54;11.60;99.90
20035;DHT22;10178;48.034;9.800;2022-09-28T11:29:25;11.70;99.90
20035;DHT22;10178;48.034;9.800;2022-09-28T11:31:59;11.70;99.90
20035;DHT22;10178;48.034;9.800;2022-09-28T11:34:32;11.70;99.90
20035;DHT22;10178;48.034;9.800;2022-09-28T11:37:33;11.80;99.90
20035;DHT22;10178;48.034;9.800;2022-09-28T11:43:15;11.60;99.90
20035;DHT22;10178;48.034;9.800;2022-09-28T11:45:53;11.60;99.90
20035;DHT22;10178;48.034;9.800;2022-09-28T11:48:28;11.60;99.90
20035;DHT22;10178;48.034;9.800;2022-09-28T11:51:01;11.60;99.90
20035;DHT22;10178;48.034;9.800;2022-09-28T11:53:38;11.60;99.90
20035;DHT22;10178;48.034;9.800;2022-09-28T11:56:22;11.70;99.90
20035;DHT22;10178;48.034;9.800;2022-09-28T11:58:56;11.70;99.90
20035;DHT22;10178;48.034;9.800;2022-09-28T12:01:39;11.70;99.90
20035;DHT22;10178;48.034;9.800;2022-09-28T12:06:49;11.70;99.90
20035;DHT22;10178;48.034;9.800;2022-09-28T12:09:53;11.70;99.90
20035;DHT22;10178;48.034;9.800;2022-09-28T12:12:36;11.70;99.90
20035;DHT22;10178;48.034;9.800;2022-09-28T12:15:16;11.60;99.90
20035;DHT22;10178;48.034;9.800;2022-09-28T12:17:51;11.60;99.90
20035;DHT22;10178;48.034;9.800;2022-09-28T12:20:27;11.60;99.90
20035;DHT22;10178;48.034;9.800;2022-09-28T12:25:42;11.60;99.90
20035;DHT22;10178;48.034;9.800;2022-09-28T12:31:07;11.60;99.90
20035;DHT22;10178;48.034;9.800;2022-09-28T12:33:33;11.60;99.90
20035;DHT22;10178;48.034;9.800;2022-09-28T12:36:13;11.70;99.90
20035;DHT22;10178;48.034;9.800;2022-09-28T12:45:05;10.60;99.90
20035;DHT22;10178;48.034;9.800;2022-09-28T12:47:58;10.30;99.90
20035;DHT22;10178;48.034;9.800;2022-09-28T13:02:19;11.10;99.90
20035;DHT22;10178;48.034;9.800;2022-09-28T13:08:09;11.40;99.90
20035;DHT22;10178;48.034;9.800;2022-09-28T13:23:59;11.70;99.90
20035;DHT22;10178;48.034;9.800;2022-09-28T13:26:28;11.50;99.90
20035;DHT22;10178;48.034;9.800;2022-09-28T13:29:00;11.00;99.90
20035;DHT22;10178;48.034;9.800;2022-09-28T13:31:28;11.00;99.90
20035;DHT22;10178;48.034;9.800;2022-09-28T13:33:57;10.70;99.90
20035;DHT22;10178;48.034;9.800;2022-09-28T13:38:58;10.70;99.90
20035;DHT22;10178;48.034;9.800;2022-09-28T13:41:37;10.90;99.90
20035;DHT22;10178;48.034;9.800;2022-09-28T13:52:04;11.10;99.90
20035;DHT22;10178;48.034;9.800;2022-09-28T13:54:46;10.80;99.90
20035;DHT22;10178;48.034;9.800;2022-09-28T13:57:26;10.60;99.90
20035;DHT22;10178;48.034;9.800;2022-09-28T14:00:07;11.00;99.90
20035;DHT22;10178;48.034;9.800;2022-09-28T14:02:52;11.10;99.90
20035;DHT22;10178;48.034;9.800;2022-09-28T14:08:24;11.30;99.90
20035;DHT22;10178;48.034;9.800;2022-09-28T14:16:37;11.70;99.90
20035;DHT22;10178;48.034;9.800;2022-09-28T14:21:54;11.60;99.90
20035;DHT22;10178;48.034;9.800;2022-09-28T14:32:36;11.70;99.90
20035;DHT22;10178;48.034;9.800;2022-09-28T14:35:05;11.70;99.90
20035;DHT22;10178;48.034;9.800;2022-09-28T14:37:35;11.70;99.90
20035;DHT22;10178;48.034;9.800;2022-09-28T14:40:23;11.70;99.90
20035;DHT22;10178;48.034;9.800;2022-09-28T14:43:27;11.70;99.90
20035;DHT22;10178;48.034;9.800;2022-09-28T14:48:47;11.50;99.90
20035;DHT22;10178;48.034;9.800;2022-09-28T14:59:06;10.90;99.90
20035;DHT22;10178;48.034;9.800;2022-09-28T15:01:37;11.10;99.90
20035;DHT22;10178;48.034;9.800;2022-09-28T15:04:07;10.90;99.90
20035;DHT22;10178;48.034;9.800;2022-09-28T15:12:02;11.20;99.90
20035;DHT22;10178;48.034;9.800;2022-09-28T15:14:30;11.30;99.90
20035;DHT22;10178;48.034;9.800;2022-09-28T15:16:58;11.30;99.90
20035;DHT22;10178;48.034;9.800;2022-09-28T15:19:30;11.20;99.90
20035;DHT22;10178;48.034;9.800;2022-09-28T15:22:00;11.30;99.90
20035;DHT22;10178;48.034;9.800;2022-09-28T15:24:31;11.00;99.90
20035;DHT22;10178;48.034;9.800;2022-09-28T15:27:22;11.10;99.90
20035;DHT22;10178;48.034;9.800;2022-09-28T15:30:14;11.20;99.90
20035;DHT22;10178;48.034;9.800;2022-09-28T15:32:42;11.20;99.90
20035;DHT22;10178;48.034;9.800;2022-09-28T15:35:13;11.30;99.90
20035;DHT22;10178;48.034;9.800;2022-09-28T15:37:46;11.30;99.90
20035;DHT22;10178;48.034;9.800;2022-09-28T15:40:18;11.30;99.90
20035;DHT22;10178;48.034;9.800;2022-09-28T15:42:45;11.40;99.90
20035;DHT22;10178;48.034;9.800;2022-09-28T15:47:54;10.80;99.90
20035;DHT22;10178;48.034;9.800;2022-09-28T15:50:24;11.00;99.90
20035;DHT22;10178;48.034;9.800;2022-09-28T15:55:41;10.80;99.90
20035;DHT22;10178;48.034;9.800;2022-09-28T16:00:37;10.70;99.90
20035;DHT22;10178;48.034;9.800;2022-09-28T16:05:48;10.70;99.90
20035;DHT22;10178;48.034;9.800;2022-09-28T16:13:32;10.80;99.90
20035;DHT22;10178;48.034;9.800;2022-09-28T16:15:59;11.00;99.90
20035;DHT22;10178;48.034;9.800;2022-09-28T16:18:29;10.60;99.90
20035;DHT22;10178;48.034;9.800;2022-09-28T16:21:23;10.50;99.90
20035;DHT22;10178;48.034;9.800;2022-09-28T16:23:52;10.50;99.90
20035;DHT22;10178;48.034;9.800;2022-09-28T16:26:33;10.90;99.90
20035;DHT22;10178;48.034;9.800;2022-09-28T16:29:06;10.90;99.90
20035;DHT22;10178;48.034;9.800;2022-09-28T16:31:31;10.90;99.90
20035;DHT22;10178;48.034;9.800;2022-09-28T16:34:15;10.70;99.90
20035;DHT22;10178;48.034;9.800;2022-09-28T16:36:43;9.80;99.90
20035;DHT22;10178;48.034;9.800;2022-09-28T16:39:11;9.80;99.90
20035;DHT22;10178;48.034;9.800;2022-09-28T16:41:38;9.60;99.90
20035;DHT22;10178;48.034;9.800;2022-09-28T16:44:20;9.10;99.90
20035;DHT22;10178;48.034;9.800;2022-09-28T16:46:48;8.70;99.90
20035;DHT22;10178;48.034;9.800;2022-09-28T16:49:15;8.20;99.90
20035;DHT22;10178;48.034;9.800;2022-09-28T16:51:47;8.00;99.90
20035;DHT22;10178;48.034;9.800;2022-09-28T16:54:16;7.90;99.90
20035;DHT22;10178;48.034;9.800;2022-09-28T16:57:01;7.90;99.90
20035;DHT22;10178;48.034;9.800;2022-09-28T16:59:28;7.70;99.90
20035;DHT22;10178;48.034;9.800;2022-09-28T17:01:53;7.60;99.90
20035;DHT22;10178;48.034;9.800;2022-09-28T17:04:21;7.60;99.90
20035;DHT22;10178;48.034;9.800;2022-09-28T17:06:52;7.50;99.90
20035;DHT22;10178;48.034;9.800;2022-09-28T17:09:22;7.40;99.90
20035;DHT22;10178;48.034;9.800;2022-09-28T17:11:47;7.40;99.90
20035;DHT22;10178;48.034;9.800;2022-09-28T17:14:15;7.40;99.90
20035;DHT22;10178;48.034;9.800;2022-09-28T17:16:41;7.40;99.90
20035;DHT22;10178;48.034;9.800;2022-09-28T17:19:36;7.30;99.90
20035;DHT22;10178;48.034;9.800;2022-09-28T17:22:02;7.40;99.90
20035;DHT22;10178;48.034;9.800;2022-09-28T17:24:27;7.30;99.90
20035;DHT22;10178;48.034;9.800;2022-09-28T17:26:53;7.30;99.90
20035;DHT22;10178;48.034;9.800;2022-09-28T17:29:19;7.30;99.90
20035;DHT22;10178;48.034;9.800;2022-09-28T17:31:46;7.60;99.90
20035;DHT22;10178;48.034;9.800;2022-09-28T17:34:13;8.30;99.90
20035;DHT22;10178;48.034;9.800;2022-09-28T17:36:40;9.10;99.90
20035;DHT22;10178;48.034;9.800;2022-09-28T17:39:14;9.70;99.90
20035;DHT22;10178;48.034;9.800;2022-09-28T17:41:40;10.30;99.90
20035;DHT22;10178;48.034;9.800;2022-09-28T17:44:06;10.90;99.90
20035;DHT22;10178;48.034;9.800;2022-09-28T17:46:36;11.30;99.90
20035;DHT22;10178;48.034;9.800;2022-09-28T17:49:05;11.60;99.90
20035;DHT22;10178;48.034;9.800;2022-09-28T17:51:33;11.70;99.90
20035;DHT22;10178;48.034;9.800;2022-09-28T17:54:00;11.90;99.90
20035;DHT22;10178;48.034;9.800;2022-09-28T17:56:26;12.10;99.90
20035;DHT22;10178;48.034;9.800;2022-09-28T17:58:56;11.60;99.90
20035;DHT22;10178;48.034;9.800;2022-09-28T18:01:22;11.20;99.90
20035;DHT22;10178;48.034;9.800;2022-09-28T18:03:48;11.50;99.90
20035;DHT22;10178;48.034;9.800;2022-09-28T18:06:16;11.80;99.90
20035;DHT22;10178;48.034;9.800;2022-09-28T18:08:44;12.00;99.90
20035;DHT22;10178;48.034;9.800;2022-09-28T18:13:37;10.30;99.90
20035;DHT22;10178;48.034;9.800;2022-09-28T18:16:04;9.70;99.90
20035;DHT22;10178;48.034;9.800;2022-09-28T18:18:30;8.90;99.90
20035;DHT22;10178;48.034;9.800;2022-09-28T18:20:59;8.60;99.90
20035;DHT22;10178;48.034;9.800;2022-09-28T18:23:25;9.20;99.90
20035;DHT22;10178;48.034;9.800;2022-09-28T18:29:13;10.80;99.90
20035;DHT22;10178;48.034;9.800;2022-09-28T18:31:40;11.40;99.90
20035;DHT22;10178;48.034;9.800;2022-09-28T18:34:06;11.70;99.90
20035;DHT22;10178;48.034;9.800;2022-09-28T18:36:32;11.90;99.90
20035;DHT22;10178;48.034;9.800;2022-09-28T18:39:01;12.00;99.90
20035;DHT22;10178;48.034;9.800;2022-09-28T18:41:27;12.10;99.90
20035;DHT22;10178;48.034;9.800;2022-09-28T18:43:53;12.20;99.90
20035;DHT22;10178;48.034;9.800;2022-09-28T18:46:29;12.30;99.90
20035;DHT22;10178;48.034;9.800;2022-09-28T18:49:01;12.30;99.90
20035;DHT22;10178;48.034;9.800;2022-09-28T18:51:27;12.30;99.90
20035;DHT22;10178;48.034;9.800;2022-09-28T18:54:00;12.40;99.90
20035;DHT22;10178;48.034;9.800;2022-09-28T18:56:31;12.40;99.90
20035;DHT22;10178;48.034;9.800;2022-09-28T18:58:57;12.40;99.90
20035;DHT22;10178;48.034;9.800;2022-09-28T19:01:27;12.40;99.90
20035;DHT22;10178;48.034;9.800;2022-09-28T19:03:53;12.40;99.90
20035;DHT22;10178;48.034;9.800;2022-09-28T19:06:18;12.40;99.90
20035;DHT22;10178;48.034;9.800;2022-09-28T19:08:51;12.40;99.90
20035;DHT22;10178;48.034;9.800;2022-09-28T19:11:25;12.40;99.90
20035;DHT22;10178;48.034;9.800;2022-09-28T19:13:52;12.40;99.90